St Pete Beach, Florida
Current Conditions -  °F | °C
As of 3:53 AM on Monday 20 Oct 2014 (Local Time) from KSPG Reporting Station
Clear Clear  
Wind Chill: 72°   Ceiling: Unl
Heat Index: 72°   Visibility: 10mi
Dew Point: 66°   Wind: 6mph
Humidity: 81%   Direction: 110°ESE
Pressure: 30"   Gusts: NA
Location:  27.7426°N, 82.7481°W
Report Text: KSPG 200753Z AUTO 11005KT 10SM CLR 22/19 A3000 RMK AO2 SLP159 T02220189
Loading
Personal Weather Stations






























Interactive Weather Map New forecast layout! Learn more

10-Day Weather Forecast

Advertisements
Track Severe Weather on mobile